地図

経路データ

SID SEASON NUMBER BASIN SUBBASIN NAME ISO_TIME NATURE LAT LON WMO_WIND WMO_PRES WMO_AGENCY TRACK_TYPE DIST2LAND LANDFALL IFLAG USA_AGENCY USA_ATCF_ID USA_LAT USA_LON USA_RECORD USA_STATUS USA_WIND USA_PRES USA_SSHS USA_R34_NE USA_R34_SE USA_R34_SW USA_R34_NW USA_R50_NE USA_R50_SE USA_R50_SW USA_R50_NW USA_R64_NE USA_R64_SE USA_R64_SW USA_R64_NW USA_POCI USA_ROCI USA_RMW USA_EYE TOKYO_LAT TOKYO_LON TOKYO_GRADE TOKYO_WIND TOKYO_PRES TOKYO_R50_DIR TOKYO_R50_LONG TOKYO_R50_SHORT TOKYO_R30_DIR TOKYO_R30_LONG TOKYO_R30_SHORT TOKYO_LAND CMA_LAT CMA_LON CMA_CAT CMA_WIND CMA_PRES HKO_LAT HKO_LON HKO_CAT HKO_WIND HKO_PRES NEWDELHI_LAT NEWDELHI_LON NEWDELHI_GRADE NEWDELHI_WIND NEWDELHI_PRES NEWDELHI_CI NEWDELHI_DP NEWDELHI_POCI REUNION_LAT REUNION_LON REUNION_TYPE REUNION_WIND REUNION_PRES REUNION_TNUM REUNION_CI REUNION_RMW REUNION_R34_NE REUNION_R34_SE REUNION_R34_SW REUNION_R34_NW REUNION_R50_NE REUNION_R50_SE REUNION_R50_SW REUNION_R50_NW REUNION_R64_NE REUNION_R64_SE REUNION_R64_SW REUNION_R64_NW BOM_LAT BOM_LON BOM_TYPE BOM_WIND BOM_PRES BOM_TNUM BOM_CI BOM_RMW BOM_R34_NE BOM_R34_SE BOM_R34_SW BOM_R34_NW BOM_R50_NE BOM_R50_SE BOM_R50_SW BOM_R50_NW BOM_R64_NE BOM_R64_SE BOM_R64_SW BOM_R64_NW BOM_ROCI BOM_POCI BOM_EYE BOM_POS_METHOD BOM_PRES_METHOD NADI_LAT NADI_LON NADI_CAT NADI_WIND NADI_PRES WELLINGTON_LAT WELLINGTON_LON WELLINGTON_WIND WELLINGTON_PRES DS824_LAT DS824_LON DS824_STAGE DS824_WIND DS824_PRES TD9636_LAT TD9636_LON TD9636_STAGE TD9636_WIND TD9636_PRES TD9635_LAT TD9635_LON TD9635_WIND TD9635_PRES TD9635_ROCI NEUMANN_LAT NEUMANN_LON NEUMANN_CLASS NEUMANN_WIND NEUMANN_PRES MLC_LAT MLC_LON MLC_CLASS MLC_WIND MLC_PRES USA_GUST BOM_GUST BOM_GUST_PER REUNION_GUST REUNION_GUST_PER USA_SEAHGT USA_SEARAD_NE USA_SEARAD_SE USA_SEARAD_SW USA_SEARAD_NW STORM_SPEED STORM_DIR
1870001S31048 1870 1 SI MM NOT_NAMED 1870-01-01 06:00:00 NR -30.9000 47.8000 reunion main 633 633 _____O________ -1 -30.9000 47.8000 99 9.90000 0 0
1870001S31048 1870 1 SI MM NOT_NAMED 1870-01-01 09:00:00 NR -30.8951 47.7800 main 633 633 _____P________ -1 -30.8951 47.7800 99 0 271
1870001S31048 1870 1 SI MM NOT_NAMED 1870-01-01 12:00:00 NR -30.8991 47.7666 main 633 633 _____P________ -1 -30.8991 47.7666 99 0 0
1870001S31048 1870 1 SI MM NOT_NAMED 1870-01-01 15:00:00 NR -30.9206 47.7664 main 633 633 _____P________ -1 -30.9206 47.7664 99 1 0
1870001S31048 1870 1 SI MM NOT_NAMED 1870-01-01 18:00:00 NR -30.9685 47.7862 main 643 643 _____P________ -1 -30.9685 47.7862 99 1 157
1870001S31048 1870 1 SI MM NOT_NAMED 1870-01-01 21:00:00 NR -31.0517 47.8326 main 653 653 _____P________ -1 -31.0517 47.8326 99 2 154
1870001S31048 1870 1 SI MM NOT_NAMED 1870-01-02 00:00:00 NR -31.1788 47.9123 main 667 667 _____P________ -1 -31.1788 47.9123 99 4 151
1870001S31048 1870 1 SI MM NOT_NAMED 1870-01-02 03:00:00 NR -31.3587 48.0324 main 691 691 _____P________ -1 -31.3587 48.0324 99 5 150
1870001S31048 1870 1 SI MM NOT_NAMED 1870-01-02 06:00:00 NR -31.6000 48.2000 reunion main 719 719 _____O________ -1 -31.6000 48.2000 99 9.90000 6 149
1870001S31048 1870 1 SI MM NOT_NAMED 1870-01-02 09:00:00 NR -31.9079 48.4201 main 757 757 _____P________ -1 -31.9079 48.4201 99 8 148
1870001S31048 1870 1 SI MM NOT_NAMED 1870-01-02 12:00:00 NR -32.2736 48.6883 main 809 809 _____P________ -1 -32.2736 48.6883 99 9 148
1870001S31048 1870 1 SI MM NOT_NAMED 1870-01-02 15:00:00 NR -32.6849 48.9975 main 861 861 _____P________ -1 -32.6849 48.9975 99 10 147
1870001S31048 1870 1 SI MM NOT_NAMED 1870-01-02 18:00:00 NR -33.1295 49.3405 main 914 914 _____P________ -1 -33.1295 49.3405 99 11 147
1870001S31048 1870 1 SI MM NOT_NAMED 1870-01-02 21:00:00 NR -33.5954 49.7101 main 978 978 _____P________ -1 -33.5954 49.7101 99 11 146
1870001S31048 1870 1 SI MM NOT_NAMED 1870-01-03 00:00:00 NR -34.0704 50.0986 main 1042 1042 _____P________ -1 -34.0704 50.0986 99 12 145
1870001S31048 1870 1 SI MM NOT_NAMED 1870-01-03 03:00:00 NR -34.5425 50.4980 main 1097 1097 _____P________ -1 -34.5425 50.4980 99 11 145
1870001S31048 1870 1 SI MM NOT_NAMED 1870-01-03 06:00:00 NR -35.0000 50.9000 reunion main 1162 1162 _____O________ -1 -35.0000 50.9000 99 9.90000 11 144
1870001S31048 1870 1 SI MM NOT_NAMED 1870-01-03 09:00:00 NR -35.4424 51.3096 main 1216 1216 _____P________ -1 -35.4424 51.3096 99 11 142
1870001S31048 1870 1 SI MM NOT_NAMED 1870-01-03 12:00:00 NR -35.8824 51.7328 main 1282 1282 _____P________ -1 -35.8824 51.7328 99 11 142
1870001S31048 1870 1 SI MM NOT_NAMED 1870-01-03 15:00:00 NR -36.3114 52.1601 main 1340 1340 _____P________ -1 -36.3114 52.1601 99 11 141
1870001S31048 1870 1 SI MM NOT_NAMED 1870-01-03 18:00:00 NR -36.7209 52.5818 main 1396 1396 _____P________ -1 -36.7209 52.5818 99 10 140
1870001S31048 1870 1 SI MM NOT_NAMED 1870-01-03 21:00:00 NR -37.1027 52.9874 main 1451 1451 _____P________ -1 -37.1027 52.9874 99 10 139
1870001S31048 1870 1 SI MM NOT_NAMED 1870-01-04 00:00:00 NR -37.4485 53.3664 main 1496 1496 _____P________ -1 -37.4485 53.3664 99 9 139
1870001S31048 1870 1 SI MM NOT_NAMED 1870-01-04 03:00:00 NR -37.7503 53.7076 main 1548 1548 _____P________ -1 -37.7503 53.7076 99 7 138
1870001S31048 1870 1 SI MM NOT_NAMED 1870-01-04 06:00:00 NR -38.0000 54.0000 reunion main 1580 1580 _____O________ -1 -38.0000 54.0000 99 9.90000 6 137
1870001S31048 1870 1 SI MM NOT_NAMED 1870-01-04 09:00:00 NR -38.1924 54.2351 main 1608 1608 _____P________ -1 -38.1924 54.2351 99 5 135
1870001S31048 1870 1 SI MM NOT_NAMED 1870-01-04 12:00:00 NR -38.3326 54.4168 main 1626 1626 _____P________ -1 -38.3326 54.4168 99 3 133
1870001S31048 1870 1 SI MM NOT_NAMED 1870-01-04 15:00:00 NR -38.4282 54.5522 main 1623 1615 _____P________ -1 -38.4282 54.5522 99 2 131
1870001S31048 1870 1 SI MM NOT_NAMED 1870-01-04 18:00:00 NR -38.4868 54.6487 main 1615 1609 _____P________ -1 -38.4868 54.6487 99 2 125
1870001S31048 1870 1 SI MM NOT_NAMED 1870-01-04 21:00:00 NR -38.5159 54.7140 main 1609 1603 _____P________ -1 -38.5159 54.7140 99 1 114
1870001S31048 1870 1 SI MM NOT_NAMED 1870-01-05 00:00:00 NR -38.5229 54.7557 main 1603 1603 _____P________ -1 -38.5229 54.7557 99 1 89
1870001S31048 1870 1 SI MM NOT_NAMED 1870-01-05 03:00:00 NR -38.5151 54.7818 main 1603 1603 _____P________ -1 -38.5151 54.7818 99 0 55
1870001S31048 1870 1 SI MM NOT_NAMED 1870-01-05 06:00:00 NR -38.5000 54.8000 reunion main 1603 _____O________ -1 -38.5000 54.8000 99 9.90000 0 0

IBTrACS Databaseについて

本データベースは、米国NOAAが公開する1842年以降の世界の熱帯低気圧のベストトラックデータアーカイブInternational Best Track Archive for Climate Stewardship (IBTrACS)を、ウェブで閲覧しやすい形式に変換したものです。

最終更新日:2021-11-26